sensor_id;sensor_type;location;lat;lon;timestamp;P1;durP1;ratioP1;P2;durP2;ratioP2
49029;SDS011;43337;52.070;4.508;2023-07-30T00:01:56;17.90;;;3.60;;
49029;SDS011;43337;52.070;4.508;2023-07-30T00:04:22;17.45;;;2.90;;
49029;SDS011;43337;52.070;4.508;2023-07-30T00:06:48;19.67;;;2.97;;
49029;SDS011;43337;52.070;4.508;2023-07-30T00:09:13;18.13;;;3.85;;
49029;SDS011;43337;52.070;4.508;2023-07-30T00:11:39;19.05;;;3.60;;
49029;SDS011;43337;52.070;4.508;2023-07-30T00:14:04;24.33;;;5.35;;
49029;SDS011;43337;52.070;4.508;2023-07-30T00:16:30;23.02;;;3.70;;
49029;SDS011;43337;52.070;4.508;2023-07-30T00:18:55;18.30;;;2.88;;
49029;SDS011;43337;52.070;4.508;2023-07-30T00:21:21;17.90;;;2.85;;
49029;SDS011;43337;52.070;4.508;2023-07-30T00:23:47;19.40;;;2.97;;
49029;SDS011;43337;52.070;4.508;2023-07-30T00:26:12;15.35;;;2.83;;
49029;SDS011;43337;52.070;4.508;2023-07-30T00:28:38;15.85;;;2.90;;
49029;SDS011;43337;52.070;4.508;2023-07-30T00:31:03;13.48;;;2.38;;
49029;SDS011;43337;52.070;4.508;2023-07-30T00:33:28;19.90;;;3.35;;
49029;SDS011;43337;52.070;4.508;2023-07-30T00:35:55;18.35;;;4.05;;
49029;SDS011;43337;52.070;4.508;2023-07-30T00:38:21;13.88;;;3.45;;
49029;SDS011;43337;52.070;4.508;2023-07-30T00:40:46;13.85;;;3.20;;
49029;SDS011;43337;52.070;4.508;2023-07-30T00:43:11;13.35;;;2.53;;
49029;SDS011;43337;52.070;4.508;2023-07-30T00:45:38;15.77;;;3.20;;
49029;SDS011;43337;52.070;4.508;2023-07-30T00:48:06;16.83;;;3.33;;
49029;SDS011;43337;52.070;4.508;2023-07-30T00:50:31;23.42;;;3.10;;
49029;SDS011;43337;52.070;4.508;2023-07-30T00:52:58;16.60;;;2.80;;
49029;SDS011;43337;52.070;4.508;2023-07-30T00:55:23;22.85;;;3.15;;
49029;SDS011;43337;52.070;4.508;2023-07-30T00:57:49;25.50;;;3.95;;
49029;SDS011;43337;52.070;4.508;2023-07-30T01:00:15;20.85;;;2.53;;
49029;SDS011;43337;52.070;4.508;2023-07-30T01:02:41;24.83;;;3.05;;
49029;SDS011;43337;52.070;4.508;2023-07-30T01:05:06;17.30;;;4.32;;
49029;SDS011;43337;52.070;4.508;2023-07-30T01:07:32;23.20;;;2.85;;
49029;SDS011;43337;52.070;4.508;2023-07-30T01:09:58;14.73;;;3.05;;
49029;SDS011;43337;52.070;4.508;2023-07-30T01:12:25;23.27;;;3.88;;
49029;SDS011;43337;52.070;4.508;2023-07-30T01:14:52;19.10;;;3.03;;
49029;SDS011;43337;52.070;4.508;2023-07-30T01:17:22;18.80;;;3.03;;
49029;SDS011;43337;52.070;4.508;2023-07-30T01:19:48;23.60;;;3.53;;
49029;SDS011;43337;52.070;4.508;2023-07-30T01:22:19;17.17;;;3.42;;
49029;SDS011;43337;52.070;4.508;2023-07-30T01:24:45;22.52;;;3.83;;
49029;SDS011;43337;52.070;4.508;2023-07-30T01:27:16;21.17;;;3.40;;
49029;SDS011;43337;52.070;4.508;2023-07-30T01:29:55;22.60;;;5.57;;
49029;SDS011;43337;52.070;4.508;2023-07-30T01:32:28;20.25;;;3.70;;
49029;SDS011;43337;52.070;4.508;2023-07-30T01:34:55;19.42;;;3.65;;
49029;SDS011;43337;52.070;4.508;2023-07-30T01:37:22;13.90;;;2.50;;
49029;SDS011;43337;52.070;4.508;2023-07-30T01:39:48;23.33;;;2.97;;
49029;SDS011;43337;52.070;4.508;2023-07-30T01:42:14;20.95;;;3.22;;
49029;SDS011;43337;52.070;4.508;2023-07-30T01:44:40;22.38;;;4.05;;
49029;SDS011;43337;52.070;4.508;2023-07-30T01:47:06;21.58;;;4.22;;
49029;SDS011;43337;52.070;4.508;2023-07-30T01:49:32;21.23;;;3.20;;
49029;SDS011;43337;52.070;4.508;2023-07-30T01:51:57;22.92;;;3.88;;
49029;SDS011;43337;52.070;4.508;2023-07-30T01:54:22;24.15;;;3.30;;
49029;SDS011;43337;52.070;4.508;2023-07-30T01:56:51;22.80;;;3.38;;
49029;SDS011;43337;52.070;4.508;2023-07-30T01:59:18;20.67;;;2.67;;
49029;SDS011;43337;52.070;4.508;2023-07-30T02:01:43;17.60;;;3.45;;
49029;SDS011;43337;52.070;4.508;2023-07-30T02:04:08;19.23;;;4.38;;
49029;SDS011;43337;52.070;4.508;2023-07-30T02:06:34;20.48;;;3.28;;
49029;SDS011;43337;52.070;4.508;2023-07-30T02:08:59;21.33;;;3.28;;
49029;SDS011;43337;52.070;4.508;2023-07-30T02:11:25;14.95;;;3.03;;
49029;SDS011;43337;52.070;4.508;2023-07-30T02:13:50;18.60;;;3.45;;
49029;SDS011;43337;52.070;4.508;2023-07-30T02:16:15;22.08;;;4.03;;
49029;SDS011;43337;52.070;4.508;2023-07-30T02:18:40;17.63;;;2.97;;
49029;SDS011;43337;52.070;4.508;2023-07-30T02:21:06;17.73;;;3.17;;
49029;SDS011;43337;52.070;4.508;2023-07-30T02:23:31;24.38;;;5.45;;
49029;SDS011;43337;52.070;4.508;2023-07-30T02:25:57;20.08;;;2.88;;
49029;SDS011;43337;52.070;4.508;2023-07-30T02:28:22;19.65;;;2.80;;
49029;SDS011;43337;52.070;4.508;2023-07-30T02:30:48;19.30;;;3.58;;
49029;SDS011;43337;52.070;4.508;2023-07-30T02:33:13;23.25;;;2.70;;
49029;SDS011;43337;52.070;4.508;2023-07-30T02:35:38;26.52;;;3.38;;
49029;SDS011;43337;52.070;4.508;2023-07-30T02:38:04;15.40;;;2.47;;
49029;SDS011;43337;52.070;4.508;2023-07-30T02:40:29;17.95;;;2.55;;
49029;SDS011;43337;52.070;4.508;2023-07-30T02:42:55;19.00;;;3.30;;
49029;SDS011;43337;52.070;4.508;2023-07-30T02:45:21;20.77;;;3.75;;
49029;SDS011;43337;52.070;4.508;2023-07-30T02:47:46;19.83;;;3.15;;
49029;SDS011;43337;52.070;4.508;2023-07-30T02:50:11;22.63;;;3.47;;
49029;SDS011;43337;52.070;4.508;2023-07-30T02:52:37;15.20;;;3.67;;
49029;SDS011;43337;52.070;4.508;2023-07-30T02:55:02;19.13;;;2.75;;
49029;SDS011;43337;52.070;4.508;2023-07-30T02:57:28;13.38;;;2.53;;
49029;SDS011;43337;52.070;4.508;2023-07-30T02:59:53;18.00;;;2.65;;
49029;SDS011;43337;52.070;4.508;2023-07-30T03:02:18;18.55;;;2.60;;
49029;SDS011;43337;52.070;4.508;2023-07-30T03:04:44;16.35;;;2.97;;
49029;SDS011;43337;52.070;4.508;2023-07-30T03:07:10;17.65;;;2.95;;
49029;SDS011;43337;52.070;4.508;2023-07-30T03:09:35;13.90;;;2.10;;
49029;SDS011;43337;52.070;4.508;2023-07-30T03:12:00;16.83;;;2.83;;
49029;SDS011;43337;52.070;4.508;2023-07-30T03:14:26;14.10;;;2.40;;
49029;SDS011;43337;52.070;4.508;2023-07-30T03:16:51;18.42;;;2.85;;
49029;SDS011;43337;52.070;4.508;2023-07-30T03:19:17;10.02;;;1.92;;
49029;SDS011;43337;52.070;4.508;2023-07-30T03:21:42;13.73;;;2.17;;
49029;SDS011;43337;52.070;4.508;2023-07-30T03:24:07;11.93;;;2.72;;
49029;SDS011;43337;52.070;4.508;2023-07-30T03:26:33;15.98;;;2.67;;
49029;SDS011;43337;52.070;4.508;2023-07-30T03:28:58;8.40;;;1.60;;
49029;SDS011;43337;52.070;4.508;2023-07-30T03:31:24;10.57;;;1.85;;
49029;SDS011;43337;52.070;4.508;2023-07-30T03:33:50;13.77;;;1.95;;
49029;SDS011;43337;52.070;4.508;2023-07-30T03:36:15;11.20;;;2.03;;
49029;SDS011;43337;52.070;4.508;2023-07-30T03:38:41;11.50;;;2.63;;
49029;SDS011;43337;52.070;4.508;2023-07-30T03:41:07;11.77;;;2.28;;
49029;SDS011;43337;52.070;4.508;2023-07-30T03:43:33;14.07;;;1.88;;
49029;SDS011;43337;52.070;4.508;2023-07-30T03:45:59;9.13;;;1.52;;
49029;SDS011;43337;52.070;4.508;2023-07-30T03:48:24;10.27;;;1.60;;
49029;SDS011;43337;52.070;4.508;2023-07-30T03:50:50;20.48;;;1.80;;
49029;SDS011;43337;52.070;4.508;2023-07-30T03:53:15;8.95;;;1.75;;
49029;SDS011;43337;52.070;4.508;2023-07-30T03:55:41;8.02;;;1.30;;
49029;SDS011;43337;52.070;4.508;2023-07-30T03:58:07;11.02;;;1.38;;
49029;SDS011;43337;52.070;4.508;2023-07-30T04:00:32;9.48;;;1.55;;
49029;SDS011;43337;52.070;4.508;2023-07-30T04:02:57;6.45;;;1.27;;
49029;SDS011;43337;52.070;4.508;2023-07-30T04:05:23;8.65;;;1.55;;
49029;SDS011;43337;52.070;4.508;2023-07-30T04:07:48;11.75;;;2.05;;
49029;SDS011;43337;52.070;4.508;2023-07-30T04:10:14;10.75;;;1.38;;
49029;SDS011;43337;52.070;4.508;2023-07-30T04:12:39;9.88;;;1.42;;
49029;SDS011;43337;52.070;4.508;2023-07-30T04:15:05;7.68;;;1.67;;
49029;SDS011;43337;52.070;4.508;2023-07-30T04:17:31;8.35;;;1.58;;
49029;SDS011;43337;52.070;4.508;2023-07-30T04:19:56;7.32;;;1.23;;
49029;SDS011;43337;52.070;4.508;2023-07-30T04:22:21;9.32;;;1.20;;
49029;SDS011;43337;52.070;4.508;2023-07-30T04:24:47;8.68;;;1.40;;
49029;SDS011;43337;52.070;4.508;2023-07-30T04:27:12;4.68;;;0.85;;
49029;SDS011;43337;52.070;4.508;2023-07-30T04:29:37;7.07;;;1.25;;
49029;SDS011;43337;52.070;4.508;2023-07-30T04:32:03;5.55;;;0.95;;
49029;SDS011;43337;52.070;4.508;2023-07-30T04:34:29;8.77;;;1.00;;
49029;SDS011;43337;52.070;4.508;2023-07-30T04:36:54;6.22;;;0.98;;
49029;SDS011;43337;52.070;4.508;2023-07-30T04:39:19;8.88;;;1.27;;
49029;SDS011;43337;52.070;4.508;2023-07-30T04:41:44;9.82;;;1.33;;
49029;SDS011;43337;52.070;4.508;2023-07-30T04:44:10;6.65;;;1.00;;
49029;SDS011;43337;52.070;4.508;2023-07-30T04:46:35;9.43;;;1.75;;
49029;SDS011;43337;52.070;4.508;2023-07-30T04:49:03;8.68;;;1.27;;
49029;SDS011;43337;52.070;4.508;2023-07-30T04:51:29;6.22;;;0.93;;
49029;SDS011;43337;52.070;4.508;2023-07-30T04:53:54;7.15;;;1.23;;
49029;SDS011;43337;52.070;4.508;2023-07-30T04:56:20;9.52;;;1.83;;
49029;SDS011;43337;52.070;4.508;2023-07-30T04:58:45;5.40;;;1.02;;
49029;SDS011;43337;52.070;4.508;2023-07-30T05:01:10;5.97;;;1.13;;
49029;SDS011;43337;52.070;4.508;2023-07-30T05:03:36;8.63;;;1.10;;
49029;SDS011;43337;52.070;4.508;2023-07-30T05:06:01;8.48;;;1.10;;
49029;SDS011;43337;52.070;4.508;2023-07-30T05:08:26;5.57;;;1.20;;
49029;SDS011;43337;52.070;4.508;2023-07-30T05:10:52;3.22;;;1.10;;
49029;SDS011;43337;52.070;4.508;2023-07-30T05:13:17;7.65;;;1.20;;
49029;SDS011;43337;52.070;4.508;2023-07-30T05:15:42;4.82;;;1.35;;
49029;SDS011;43337;52.070;4.508;2023-07-30T05:18:08;7.55;;;1.50;;
49029;SDS011;43337;52.070;4.508;2023-07-30T05:20:33;6.82;;;1.35;;
49029;SDS011;43337;52.070;4.508;2023-07-30T05:22:59;7.97;;;1.00;;
49029;SDS011;43337;52.070;4.508;2023-07-30T05:25:24;6.95;;;1.40;;
49029;SDS011;43337;52.070;4.508;2023-07-30T05:27:49;5.32;;;1.15;;
49029;SDS011;43337;52.070;4.508;2023-07-30T05:30:15;5.50;;;1.55;;
49029;SDS011;43337;52.070;4.508;2023-07-30T05:32:40;5.18;;;0.88;;
49029;SDS011;43337;52.070;4.508;2023-07-30T05:35:05;6.18;;;1.30;;
49029;SDS011;43337;52.070;4.508;2023-07-30T05:37:31;6.68;;;1.50;;
49029;SDS011;43337;52.070;4.508;2023-07-30T05:39:57;14.48;;;2.10;;
49029;SDS011;43337;52.070;4.508;2023-07-30T05:42:23;6.90;;;1.40;;
49029;SDS011;43337;52.070;4.508;2023-07-30T05:44:48;9.50;;;2.17;;
49029;SDS011;43337;52.070;4.508;2023-07-30T05:47:13;9.32;;;1.50;;
49029;SDS011;43337;52.070;4.508;2023-07-30T05:49:39;12.18;;;1.83;;
49029;SDS011;43337;52.070;4.508;2023-07-30T05:52:04;7.93;;;2.28;;
49029;SDS011;43337;52.070;4.508;2023-07-30T05:54:30;13.10;;;2.33;;
49029;SDS011;43337;52.070;4.508;2023-07-30T05:56:55;11.82;;;1.52;;
49029;SDS011;43337;52.070;4.508;2023-07-30T05:59:21;15.63;;;1.98;;
49029;SDS011;43337;52.070;4.508;2023-07-30T06:01:46;15.63;;;3.33;;
49029;SDS011;43337;52.070;4.508;2023-07-30T06:04:12;15.40;;;3.47;;
49029;SDS011;43337;52.070;4.508;2023-07-30T06:06:37;17.77;;;2.85;;
49029;SDS011;43337;52.070;4.508;2023-07-30T06:09:02;15.05;;;2.72;;
49029;SDS011;43337;52.070;4.508;2023-07-30T06:11:40;11.00;;;2.33;;
49029;SDS011;43337;52.070;4.508;2023-07-30T06:14:05;23.98;;;2.80;;
49029;SDS011;43337;52.070;4.508;2023-07-30T06:16:30;16.33;;;2.42;;
49029;SDS011;43337;52.070;4.508;2023-07-30T06:18:56;15.57;;;2.30;;
49029;SDS011;43337;52.070;4.508;2023-07-30T06:21:21;11.13;;;2.25;;
49029;SDS011;43337;52.070;4.508;2023-07-30T06:23:46;15.73;;;2.22;;
49029;SDS011;43337;52.070;4.508;2023-07-30T06:26:12;15.48;;;2.72;;
49029;SDS011;43337;52.070;4.508;2023-07-30T06:28:37;14.80;;;3.97;;
49029;SDS011;43337;52.070;4.508;2023-07-30T06:31:03;17.98;;;3.42;;
49029;SDS011;43337;52.070;4.508;2023-07-30T06:33:28;13.25;;;2.38;;
49029;SDS011;43337;52.070;4.508;2023-07-30T06:35:54;16.58;;;2.58;;
49029;SDS011;43337;52.070;4.508;2023-07-30T06:38:19;11.75;;;1.95;;
49029;SDS011;43337;52.070;4.508;2023-07-30T06:40:46;10.20;;;2.20;;
49029;SDS011;43337;52.070;4.508;2023-07-30T06:43:11;14.57;;;2.35;;
49029;SDS011;43337;52.070;4.508;2023-07-30T06:45:37;12.25;;;2.70;;
49029;SDS011;43337;52.070;4.508;2023-07-30T06:48:02;15.60;;;2.53;;
49029;SDS011;43337;52.070;4.508;2023-07-30T06:50:29;12.30;;;2.17;;
49029;SDS011;43337;52.070;4.508;2023-07-30T06:52:54;14.77;;;2.65;;
49029;SDS011;43337;52.070;4.508;2023-07-30T06:55:20;10.23;;;1.65;;
49029;SDS011;43337;52.070;4.508;2023-07-30T06:57:45;8.13;;;1.55;;
49029;SDS011;43337;52.070;4.508;2023-07-30T07:00:11;13.63;;;2.20;;
49029;SDS011;43337;52.070;4.508;2023-07-30T07:02:37;11.98;;;2.17;;
49029;SDS011;43337;52.070;4.508;2023-07-30T07:05:02;20.75;;;2.72;;
49029;SDS011;43337;52.070;4.508;2023-07-30T07:07:28;12.50;;;2.47;;
49029;SDS011;43337;52.070;4.508;2023-07-30T07:09:53;12.90;;;2.85;;
49029;SDS011;43337;52.070;4.508;2023-07-30T07:12:18;11.45;;;1.80;;
49029;SDS011;43337;52.070;4.508;2023-07-30T07:14:44;15.38;;;2.60;;
49029;SDS011;43337;52.070;4.508;2023-07-30T07:17:09;10.98;;;2.28;;
49029;SDS011;43337;52.070;4.508;2023-07-30T07:19:35;7.75;;;1.40;;
49029;SDS011;43337;52.070;4.508;2023-07-30T07:22:03;14.05;;;1.73;;
49029;SDS011;43337;52.070;4.508;2023-07-30T07:24:29;7.30;;;1.60;;
49029;SDS011;43337;52.070;4.508;2023-07-30T07:26:54;14.45;;;2.53;;
49029;SDS011;43337;52.070;4.508;2023-07-30T07:29:20;11.68;;;1.90;;
49029;SDS011;43337;52.070;4.508;2023-07-30T07:31:45;10.20;;;1.60;;
49029;SDS011;43337;52.070;4.508;2023-07-30T07:34:11;10.85;;;2.55;;
49029;SDS011;43337;52.070;4.508;2023-07-30T07:36:36;11.75;;;2.22;;
49029;SDS011;43337;52.070;4.508;2023-07-30T07:39:03;6.78;;;1.88;;
49029;SDS011;43337;52.070;4.508;2023-07-30T07:41:28;15.60;;;2.15;;
49029;SDS011;43337;52.070;4.508;2023-07-30T07:43:53;8.70;;;1.80;;
49029;SDS011;43337;52.070;4.508;2023-07-30T07:46:19;13.13;;;2.60;;
49029;SDS011;43337;52.070;4.508;2023-07-30T07:48:44;13.32;;;2.28;;
49029;SDS011;43337;52.070;4.508;2023-07-30T07:51:10;9.02;;;1.90;;
49029;SDS011;43337;52.070;4.508;2023-07-30T07:53:36;6.88;;;1.92;;
49029;SDS011;43337;52.070;4.508;2023-07-30T07:56:02;11.07;;;2.10;;
49029;SDS011;43337;52.070;4.508;2023-07-30T07:58:27;8.80;;;1.27;;
49029;SDS011;43337;52.070;4.508;2023-07-30T08:00:55;12.50;;;2.03;;
49029;SDS011;43337;52.070;4.508;2023-07-30T08:03:21;7.82;;;1.42;;
49029;SDS011;43337;52.070;4.508;2023-07-30T08:05:47;13.70;;;2.20;;
49029;SDS011;43337;52.070;4.508;2023-07-30T08:08:13;11.05;;;1.88;;
49029;SDS011;43337;52.070;4.508;2023-07-30T08:10:39;11.15;;;2.03;;
49029;SDS011;43337;52.070;4.508;2023-07-30T08:13:04;11.75;;;2.00;;
49029;SDS011;43337;52.070;4.508;2023-07-30T08:15:30;9.57;;;1.83;;
49029;SDS011;43337;52.070;4.508;2023-07-30T08:17:55;8.93;;;2.42;;
49029;SDS011;43337;52.070;4.508;2023-07-30T08:20:21;10.93;;;2.33;;
49029;SDS011;43337;52.070;4.508;2023-07-30T08:22:46;10.07;;;1.85;;
49029;SDS011;43337;52.070;4.508;2023-07-30T08:25:12;10.38;;;1.70;;
49029;SDS011;43337;52.070;4.508;2023-07-30T08:27:37;11.38;;;1.88;;
49029;SDS011;43337;52.070;4.508;2023-07-30T08:30:02;9.82;;;2.13;;
49029;SDS011;43337;52.070;4.508;2023-07-30T08:32:28;14.20;;;2.95;;
49029;SDS011;43337;52.070;4.508;2023-07-30T08:34:53;10.98;;;3.38;;
49029;SDS011;43337;52.070;4.508;2023-07-30T08:37:19;11.50;;;2.88;;
49029;SDS011;43337;52.070;4.508;2023-07-30T08:39:44;11.55;;;2.20;;
49029;SDS011;43337;52.070;4.508;2023-07-30T08:42:10;9.38;;;1.40;;
49029;SDS011;43337;52.070;4.508;2023-07-30T08:44:36;8.27;;;2.60;;
49029;SDS011;43337;52.070;4.508;2023-07-30T08:47:02;9.55;;;1.30;;
49029;SDS011;43337;52.070;4.508;2023-07-30T08:49:28;10.30;;;1.85;;
49029;SDS011;43337;52.070;4.508;2023-07-30T08:51:57;7.60;;;1.58;;
49029;SDS011;43337;52.070;4.508;2023-07-30T08:54:24;8.27;;;1.67;;
49029;SDS011;43337;52.070;4.508;2023-07-30T08:56:52;7.60;;;2.22;;
49029;SDS011;43337;52.070;4.508;2023-07-30T08:59:18;13.10;;;2.10;;
49029;SDS011;43337;52.070;4.508;2023-07-30T09:01:45;10.10;;;1.80;;
49029;SDS011;43337;52.070;4.508;2023-07-30T09:04:15;11.18;;;1.40;;
49029;SDS011;43337;52.070;4.508;2023-07-30T09:06:42;9.07;;;1.60;;
49029;SDS011;43337;52.070;4.508;2023-07-30T09:09:09;10.45;;;2.10;;
49029;SDS011;43337;52.070;4.508;2023-07-30T09:11:35;7.20;;;1.42;;
49029;SDS011;43337;52.070;4.508;2023-07-30T09:14:01;11.13;;;2.17;;
49029;SDS011;43337;52.070;4.508;2023-07-30T09:16:27;7.60;;;1.67;;
49029;SDS011;43337;52.070;4.508;2023-07-30T09:18:53;9.52;;;1.38;;
49029;SDS011;43337;52.070;4.508;2023-07-30T09:21:19;10.35;;;1.30;;
49029;SDS011;43337;52.070;4.508;2023-07-30T09:23:55;5.32;;;1.45;;
49029;SDS011;43337;52.070;4.508;2023-07-30T09:26:21;9.95;;;1.52;;
49029;SDS011;43337;52.070;4.508;2023-07-30T09:28:47;6.22;;;1.17;;
49029;SDS011;43337;52.070;4.508;2023-07-30T09:31:12;11.90;;;1.45;;
49029;SDS011;43337;52.070;4.508;2023-07-30T09:33:40;11.77;;;1.70;;
49029;SDS011;43337;52.070;4.508;2023-07-30T09:36:09;12.82;;;3.03;;
49029;SDS011;43337;52.070;4.508;2023-07-30T09:38:39;9.38;;;1.92;;
49029;SDS011;43337;52.070;4.508;2023-07-30T09:41:05;7.80;;;1.35;;
49029;SDS011;43337;52.070;4.508;2023-07-30T09:43:33;10.10;;;3.53;;
49029;SDS011;43337;52.070;4.508;2023-07-30T09:46:03;6.57;;;2.03;;
49029;SDS011;43337;52.070;4.508;2023-07-30T09:48:30;11.02;;;1.90;;
49029;SDS011;43337;52.070;4.508;2023-07-30T09:51:00;8.27;;;1.83;;
49029;SDS011;43337;52.070;4.508;2023-07-30T09:53:28;9.73;;;2.22;;
49029;SDS011;43337;52.070;4.508;2023-07-30T09:55:55;9.45;;;1.88;;
49029;SDS011;43337;52.070;4.508;2023-07-30T09:58:20;11.57;;;1.63;;
49029;SDS011;43337;52.070;4.508;2023-07-30T10:00:46;9.38;;;1.42;;
49029;SDS011;43337;52.070;4.508;2023-07-30T10:03:14;7.82;;;1.48;;
49029;SDS011;43337;52.070;4.508;2023-07-30T10:05:41;6.15;;;1.55;;
49029;SDS011;43337;52.070;4.508;2023-07-30T10:08:10;8.30;;;1.42;;
49029;SDS011;43337;52.070;4.508;2023-07-30T10:10:39;7.30;;;1.60;;
49029;SDS011;43337;52.070;4.508;2023-07-30T10:13:06;7.03;;;1.95;;
49029;SDS011;43337;52.070;4.508;2023-07-30T10:15:39;6.93;;;1.20;;
49029;SDS011;43337;52.070;4.508;2023-07-30T10:18:06;9.43;;;1.67;;
49029;SDS011;43337;52.070;4.508;2023-07-30T10:20:31;8.93;;;1.55;;
49029;SDS011;43337;52.070;4.508;2023-07-30T10:22:58;8.68;;;1.30;;
49029;SDS011;43337;52.070;4.508;2023-07-30T10:25:28;5.90;;;1.25;;
49029;SDS011;43337;52.070;4.508;2023-07-30T10:28:26;6.03;;;1.60;;
49029;SDS011;43337;52.070;4.508;2023-07-30T10:30:56;6.20;;;1.20;;
49029;SDS011;43337;52.070;4.508;2023-07-30T10:33:23;8.02;;;1.85;;
49029;SDS011;43337;52.070;4.508;2023-07-30T10:35:48;5.88;;;1.33;;
49029;SDS011;43337;52.070;4.508;2023-07-30T10:40:59;6.78;;;1.67;;
49029;SDS011;43337;52.070;4.508;2023-07-30T10:43:44;8.60;;;1.83;;
49029;SDS011;43337;52.070;4.508;2023-07-30T10:46:13;11.32;;;1.50;;
49029;SDS011;43337;52.070;4.508;2023-07-30T10:48:40;8.00;;;1.10;;
49029;SDS011;43337;52.070;4.508;2023-07-30T10:51:12;6.43;;;1.98;;
49029;SDS011;43337;52.070;4.508;2023-07-30T10:53:38;6.03;;;0.93;;
49029;SDS011;43337;52.070;4.508;2023-07-30T10:56:07;8.05;;;1.30;;
49029;SDS011;43337;52.070;4.508;2023-07-30T10:58:35;8.63;;;1.48;;
49029;SDS011;43337;52.070;4.508;2023-07-30T11:01:01;8.35;;;1.83;;
49029;SDS011;43337;52.070;4.508;2023-07-30T11:03:28;13.07;;;1.35;;
49029;SDS011;43337;52.070;4.508;2023-07-30T11:05:54;5.50;;;0.80;;
49029;SDS011;43337;52.070;4.508;2023-07-30T11:08:42;8.52;;;1.23;;
49029;SDS011;43337;52.070;4.508;2023-07-30T11:11:07;7.55;;;1.50;;
49029;SDS011;43337;52.070;4.508;2023-07-30T11:13:44;7.70;;;1.75;;
49029;SDS011;43337;52.070;4.508;2023-07-30T11:16:12;6.53;;;1.30;;
49029;SDS011;43337;52.070;4.508;2023-07-30T11:18:38;10.63;;;1.85;;
49029;SDS011;43337;52.070;4.508;2023-07-30T11:21:11;6.47;;;1.52;;
49029;SDS011;43337;52.070;4.508;2023-07-30T11:23:42;10.23;;;1.97;;
49029;SDS011;43337;52.070;4.508;2023-07-30T11:26:08;6.30;;;1.45;;
49029;SDS011;43337;52.070;4.508;2023-07-30T11:28:39;8.77;;;1.10;;
49029;SDS011;43337;52.070;4.508;2023-07-30T11:31:16;9.93;;;1.10;;
49029;SDS011;43337;52.070;4.508;2023-07-30T11:33:44;9.15;;;1.70;;
49029;SDS011;43337;52.070;4.508;2023-07-30T11:36:21;6.72;;;1.23;;
49029;SDS011;43337;52.070;4.508;2023-07-30T11:38:49;7.00;;;1.40;;
49029;SDS011;43337;52.070;4.508;2023-07-30T11:41:18;6.97;;;1.90;;
49029;SDS011;43337;52.070;4.508;2023-07-30T11:43:44;9.25;;;2.40;;
49029;SDS011;43337;52.070;4.508;2023-07-30T11:46:11;4.60;;;1.20;;
49029;SDS011;43337;52.070;4.508;2023-07-30T11:48:39;6.22;;;1.23;;
49029;SDS011;43337;52.070;4.508;2023-07-30T11:51:17;7.28;;;1.10;;
49029;SDS011;43337;52.070;4.508;2023-07-30T11:53:45;5.22;;;1.00;;
49029;SDS011;43337;52.070;4.508;2023-07-30T11:56:16;4.70;;;0.88;;
49029;SDS011;43337;52.070;4.508;2023-07-30T11:58:43;9.93;;;1.55;;
49029;SDS011;43337;52.070;4.508;2023-07-30T12:01:09;9.82;;;2.00;;
49029;SDS011;43337;52.070;4.508;2023-07-30T12:03:34;7.63;;;1.15;;
49029;SDS011;43337;52.070;4.508;2023-07-30T12:06:04;5.82;;;1.08;;
49029;SDS011;43337;52.070;4.508;2023-07-30T12:08:30;5.53;;;1.05;;
49029;SDS011;43337;52.070;4.508;2023-07-30T12:10:56;8.27;;;2.95;;
49029;SDS011;43337;52.070;4.508;2023-07-30T12:13:28;6.68;;;1.10;;
49029;SDS011;43337;52.070;4.508;2023-07-30T12:15:54;6.90;;;1.00;;
49029;SDS011;43337;52.070;4.508;2023-07-30T12:18:21;12.85;;;2.10;;
49029;SDS011;43337;52.070;4.508;2023-07-30T12:20:50;5.63;;;1.58;;
49029;SDS011;43337;52.070;4.508;2023-07-30T12:23:16;6.10;;;0.95;;
49029;SDS011;43337;52.070;4.508;2023-07-30T12:25:42;8.23;;;1.88;;
49029;SDS011;43337;52.070;4.508;2023-07-30T12:28:08;8.20;;;1.30;;
49029;SDS011;43337;52.070;4.508;2023-07-30T12:30:33;8.75;;;1.33;;
49029;SDS011;43337;52.070;4.508;2023-07-30T12:33:00;6.50;;;1.20;;
49029;SDS011;43337;52.070;4.508;2023-07-30T12:35:25;6.22;;;1.27;;
49029;SDS011;43337;52.070;4.508;2023-07-30T12:37:51;6.43;;;1.40;;
49029;SDS011;43337;52.070;4.508;2023-07-30T12:40:16;6.88;;;1.50;;
49029;SDS011;43337;52.070;4.508;2023-07-30T12:42:42;6.90;;;1.02;;
49029;SDS011;43337;52.070;4.508;2023-07-30T12:45:07;5.97;;;1.30;;
49029;SDS011;43337;52.070;4.508;2023-07-30T12:47:33;6.28;;;1.23;;
49029;SDS011;43337;52.070;4.508;2023-07-30T12:50:00;5.93;;;0.80;;
49029;SDS011;43337;52.070;4.508;2023-07-30T12:52:26;8.77;;;1.30;;
49029;SDS011;43337;52.070;4.508;2023-07-30T12:54:52;5.93;;;1.08;;
49029;SDS011;43337;52.070;4.508;2023-07-30T12:57:17;7.03;;;0.90;;
49029;SDS011;43337;52.070;4.508;2023-07-30T12:59:43;6.13;;;0.93;;
49029;SDS011;43337;52.070;4.508;2023-07-30T13:02:09;4.63;;;0.90;;
49029;SDS011;43337;52.070;4.508;2023-07-30T13:04:34;6.05;;;1.60;;
49029;SDS011;43337;52.070;4.508;2023-07-30T13:07:00;6.35;;;1.00;;
49029;SDS011;43337;52.070;4.508;2023-07-30T13:09:25;6.43;;;1.40;;
49029;SDS011;43337;52.070;4.508;2023-07-30T13:11:50;4.88;;;0.95;;
49029;SDS011;43337;52.070;4.508;2023-07-30T13:14:16;8.50;;;1.35;;
49029;SDS011;43337;52.070;4.508;2023-07-30T13:16:41;11.38;;;2.22;;
49029;SDS011;43337;52.070;4.508;2023-07-30T13:19:06;5.55;;;1.23;;
49029;SDS011;43337;52.070;4.508;2023-07-30T13:21:32;6.93;;;1.30;;
49029;SDS011;43337;52.070;4.508;2023-07-30T13:23:57;9.73;;;1.67;;
49029;SDS011;43337;52.070;4.508;2023-07-30T13:26:23;6.95;;;1.42;;
49029;SDS011;43337;52.070;4.508;2023-07-30T13:28:48;7.47;;;1.27;;
49029;SDS011;43337;52.070;4.508;2023-07-30T13:31:13;8.63;;;2.30;;
49029;SDS011;43337;52.070;4.508;2023-07-30T13:33:39;11.07;;;1.40;;
49029;SDS011;43337;52.070;4.508;2023-07-30T13:36:05;9.52;;;1.42;;
49029;SDS011;43337;52.070;4.508;2023-07-30T13:38:30;8.90;;;1.33;;
49029;SDS011;43337;52.070;4.508;2023-07-30T13:40:56;9.68;;;2.45;;
49029;SDS011;43337;52.070;4.508;2023-07-30T13:43:22;8.02;;;2.08;;
49029;SDS011;43337;52.070;4.508;2023-07-30T13:45:47;11.68;;;2.25;;
49029;SDS011;43337;52.070;4.508;2023-07-30T13:48:15;8.70;;;1.90;;
49029;SDS011;43337;52.070;4.508;2023-07-30T13:50:41;10.98;;;1.85;;
49029;SDS011;43337;52.070;4.508;2023-07-30T13:53:06;5.88;;;1.45;;
49029;SDS011;43337;52.070;4.508;2023-07-30T13:55:32;8.23;;;1.90;;
49029;SDS011;43337;52.070;4.508;2023-07-30T13:57:57;7.57;;;1.42;;
49029;SDS011;43337;52.070;4.508;2023-07-30T14:00:23;17.17;;;2.28;;
49029;SDS011;43337;52.070;4.508;2023-07-30T14:02:48;9.13;;;1.67;;
49029;SDS011;43337;52.070;4.508;2023-07-30T14:05:15;8.85;;;2.13;;
49029;SDS011;43337;52.070;4.508;2023-07-30T14:07:41;14.07;;;1.70;;
49029;SDS011;43337;52.070;4.508;2023-07-30T14:10:10;6.78;;;1.77;;
49029;SDS011;43337;52.070;4.508;2023-07-30T14:12:36;8.93;;;1.70;;
49029;SDS011;43337;52.070;4.508;2023-07-30T14:15:02;11.82;;;2.85;;
49029;SDS011;43337;52.070;4.508;2023-07-30T14:17:27;7.60;;;2.05;;
49029;SDS011;43337;52.070;4.508;2023-07-30T14:19:52;8.05;;;2.08;;
49029;SDS011;43337;52.070;4.508;2023-07-30T14:22:20;21.40;;;2.58;;
49029;SDS011;43337;52.070;4.508;2023-07-30T14:24:46;12.18;;;1.88;;
49029;SDS011;43337;52.070;4.508;2023-07-30T14:27:11;8.18;;;2.42;;
49029;SDS011;43337;52.070;4.508;2023-07-30T14:29:36;11.88;;;2.38;;
49029;SDS011;43337;52.070;4.508;2023-07-30T14:32:02;10.80;;;2.22;;
49029;SDS011;43337;52.070;4.508;2023-07-30T14:34:27;12.88;;;2.33;;
49029;SDS011;43337;52.070;4.508;2023-07-30T14:36:53;12.13;;;2.20;;
49029;SDS011;43337;52.070;4.508;2023-07-30T14:39:18;11.60;;;2.50;;